Cherry Run, West Virginia
Current Conditions -  °F | °C
As of 5:53 PM on Wednesday 22 Oct 2014 (Local Time) from KMRB Reporting Station
Broken Clouds Broken Clouds  
Wind Chill: 56°   Ceiling: 4300
Heat Index: 56°   Visibility: 10mi
Dew Point: 42°   Wind: 20mph
Humidity: 60%   Direction: 330°NNW
Pressure: 29.99"   Gusts: 26mph
Location:  39.5195°N, 78.0934°W
Report Text: KMRB 222153Z 33017G23KT 10SM BKN043 13/06 A2999 RMK AO2 SLP156 T01330056
Loading
Personal Weather Stations






























Interactive Weather Map
Tropical Storm Tracking
New forecast layout! Learn more

10-Day Weather Forecast

Advertisements
Track Severe Weather on mobile